createdAt,value
2023-04-20T00:02:33.488Z,59.83
2023-04-20T00:05:39.052Z,59.90
2023-04-20T00:08:45.764Z,59.93
2023-04-20T00:11:53.962Z,60.00
2023-04-20T00:15:00.577Z,59.76
2023-04-20T00:18:06.416Z,60.10
2023-04-20T00:21:12.891Z,59.36
2023-04-20T00:24:18.586Z,59.35
2023-04-20T00:27:27.723Z,59.53
2023-04-20T00:30:33.401Z,59.33
2023-04-20T00:33:40.054Z,59.53
2023-04-20T00:36:47.965Z,59.72
2023-04-20T00:39:54.472Z,59.63
2023-04-20T00:43:13.319Z,59.34
2023-04-20T00:46:19.983Z,59.42
2023-04-20T00:49:25.809Z,59.07
2023-04-20T00:52:34.125Z,59.31
2023-04-20T00:55:42.059Z,59.48
2023-04-20T00:58:54.349Z,59.79
2023-04-20T01:02:01.112Z,59.57
2023-04-20T01:05:08.579Z,59.41
2023-04-20T01:08:14.372Z,59.48
2023-04-20T01:11:21.394Z,59.33
2023-04-20T01:14:29.713Z,59.18
2023-04-20T01:17:37.024Z,59.33
2023-04-20T01:20:44.457Z,59.89
2023-04-20T01:23:53.995Z,59.68
2023-04-20T01:26:59.555Z,59.44
2023-04-20T01:30:08.225Z,60.01
2023-04-20T01:33:16.361Z,60.06
2023-04-20T01:36:22.809Z,60.44
2023-04-20T01:39:31.325Z,60.30
2023-04-20T01:42:38.093Z,60.32
2023-04-20T01:45:43.769Z,60.52
2023-04-20T01:48:50.343Z,60.69
2023-04-20T01:51:56.108Z,60.17
2023-04-20T01:55:05.189Z,60.14
2023-04-20T01:58:10.837Z,60.04
2023-04-20T02:01:17.369Z,59.95
2023-04-20T02:04:23.665Z,59.84
2023-04-20T02:07:30.047Z,59.78
2023-04-20T02:10:38.327Z,59.78
2023-04-20T02:13:44.750Z,59.79
2023-04-20T02:16:50.676Z,59.33
2023-04-20T02:19:57.267Z,59.54
2023-04-20T02:23:03.052Z,59.49
2023-04-20T02:26:12.118Z,59.45
2023-04-20T02:29:19.889Z,59.44
2023-04-20T02:32:27.051Z,59.38
2023-04-20T02:35:32.888Z,59.49
2023-04-20T02:38:39.482Z,59.28
2023-04-20T02:41:49.503Z,59.30
2023-04-20T02:44:56.609Z,59.22
2023-04-20T02:48:03.679Z,59.25
2023-04-20T02:51:11.353Z,59.37
2023-04-20T02:54:21.587Z,59.41
2023-04-20T02:57:31.270Z,59.41
2023-04-20T03:00:37.995Z,59.80
2023-04-20T03:03:47.439Z,59.67
2023-04-20T03:06:53.975Z,59.64
2023-04-20T03:10:07.178Z,60.09
2023-04-20T03:13:31.528Z,60.44
2023-04-20T03:16:42.121Z,60.45
2023-04-20T03:19:48.621Z,60.87
2023-04-20T03:22:55.063Z,61.20
2023-04-20T03:26:03.164Z,61.43
2023-04-20T03:29:22.899Z,61.21
2023-04-20T03:32:30.823Z,61.38
2023-04-20T03:35:39.659Z,61.29
2023-04-20T03:38:45.475Z,60.87
2023-04-20T03:41:51.908Z,60.89
2023-04-20T03:45:00.500Z,60.94
2023-04-20T03:48:08.059Z,60.74
2023-04-20T03:51:13.707Z,60.88
2023-04-20T03:54:20.266Z,60.92
2023-04-20T03:57:26.161Z,60.95
2023-04-20T04:00:35.971Z,61.20
2023-04-20T04:03:49.302Z,60.42
2023-04-20T04:06:56.966Z,60.74
2023-04-20T04:10:05.089Z,60.73
2023-04-20T04:13:12.267Z,60.71
2023-04-20T04:16:20.574Z,61.28
2023-04-20T04:19:27.236Z,61.26
2023-04-20T04:22:34.955Z,61.08
2023-04-20T04:26:14.756Z,61.25
2023-04-20T04:29:23.620Z,61.50
2023-04-20T04:32:34.836Z,61.59
2023-04-20T04:35:41.793Z,61.74
2023-04-20T04:38:49.527Z,61.59
2023-04-20T04:41:58.366Z,60.91
2023-04-20T04:45:15.081Z,61.03
2023-04-20T04:48:24.541Z,60.47
2023-04-20T04:51:31.940Z,60.73
2023-04-20T04:54:37.576Z,60.31
2023-04-20T04:57:44.017Z,60.57
2023-04-20T05:00:49.632Z,60.34
2023-04-20T05:03:58.875Z,60.49
2023-04-20T05:07:07.582Z,60.07
2023-04-20T05:10:15.307Z,60.56
2023-04-20T05:13:21.011Z,60.77
2023-04-20T05:16:27.442Z,60.83
2023-04-20T05:19:35.641Z,60.53
2023-04-20T05:22:42.075Z,60.73
2023-04-20T05:25:47.722Z,60.57
2023-04-20T05:28:54.246Z,60.63
2023-04-20T05:31:59.914Z,60.36
2023-04-20T05:35:11.047Z,59.69
2023-04-20T05:38:16.633Z,59.55
2023-04-20T05:41:27.003Z,59.87
2023-04-20T05:44:34.114Z,59.47
2023-04-20T05:47:40.651Z,59.16
2023-04-20T05:50:48.882Z,59.84
2023-04-20T05:53:55.329Z,59.50
2023-04-20T05:57:00.997Z,58.81
2023-04-20T06:00:09.818Z,58.78
2023-04-20T06:03:18.431Z,58.18
2023-04-20T06:06:28.226Z,57.49
2023-04-20T06:09:33.848Z,57.09
2023-04-20T06:12:40.366Z,56.06
2023-04-20T06:15:45.957Z,55.38
2023-04-20T06:18:52.713Z,55.21
2023-04-20T06:22:01.383Z,54.62
2023-04-20T06:25:08.996Z,54.20
2023-04-20T06:28:14.721Z,54.02
2023-04-20T06:31:21.502Z,54.39
2023-04-20T06:34:27.119Z,54.76
2023-04-20T06:37:37.642Z,54.93
2023-04-20T06:40:43.464Z,55.02
2023-04-20T06:43:49.912Z,54.76
2023-04-20T06:46:55.604Z,54.61
2023-04-20T06:50:02.881Z,54.02
2023-04-20T06:53:11.129Z,53.18
2023-04-20T06:56:20.708Z,52.67
2023-04-20T06:59:26.353Z,52.67
2023-04-20T07:02:33.009Z,52.20
2023-04-20T07:05:39.952Z,51.81
2023-04-20T07:08:49.031Z,51.06
2023-04-20T07:11:56.520Z,51.14
2023-04-20T07:15:03.008Z,50.03
2023-04-20T07:18:08.855Z,49.73
2023-04-20T07:21:15.450Z,49.63
2023-04-20T07:24:23.645Z,49.51
2023-04-20T07:27:31.111Z,47.39
2023-04-20T07:30:36.740Z,46.94
2023-04-20T07:33:43.732Z,46.00
2023-04-20T07:36:49.332Z,43.76
2023-04-20T07:39:58.661Z,41.53
2023-04-20T07:43:04.302Z,40.18
2023-04-20T07:46:11.246Z,41.50
2023-04-20T07:49:16.964Z,41.16
2023-04-20T07:52:23.493Z,43.24
2023-04-20T07:55:31.816Z,42.42
2023-04-20T07:58:40.522Z,43.41
2023-04-20T08:01:46.723Z,40.13
2023-04-20T08:04:53.534Z,40.41
2023-04-20T08:07:59.538Z,40.45
2023-04-20T08:11:09.485Z,39.78
2023-04-20T08:14:15.144Z,39.21
2023-04-20T08:17:21.797Z,39.54
2023-04-20T08:20:27.464Z,38.81
2023-04-20T08:23:33.968Z,39.47
2023-04-20T08:26:43.468Z,38.51
2023-04-20T08:29:50.085Z,37.83
2023-04-20T08:32:55.740Z,38.91
2023-04-20T08:36:02.330Z,38.67
2023-04-20T08:39:15.034Z,38.56
2023-04-20T08:42:24.190Z,38.28
2023-04-20T08:45:30.710Z,37.58
2023-04-20T08:48:40.082Z,36.58
2023-04-20T08:51:47.336Z,35.50
2023-04-20T08:54:57.201Z,33.68
2023-04-20T08:58:05.933Z,32.61
2023-04-20T09:01:17.688Z,30.91
2023-04-20T09:04:28.528Z,30.79
2023-04-20T09:07:35.595Z,29.84
2023-04-20T09:10:47.825Z,28.01
2023-04-20T09:14:10.382Z,27.52
2023-04-20T09:17:18.154Z,25.30
2023-04-20T09:20:35.766Z,25.31
2023-04-20T09:23:41.470Z,27.34
2023-04-20T09:26:47.896Z,27.60
2023-04-20T09:30:04.389Z,28.10
2023-04-20T09:33:12.683Z,29.15
2023-04-20T09:36:18.859Z,30.34
2023-04-20T09:39:27.456Z,30.75
2023-04-20T09:42:39.566Z,27.75
2023-04-20T09:45:49.475Z,30.10
2023-04-20T09:48:55.894Z,28.94
2023-04-20T09:52:06.691Z,27.93
2023-04-20T09:55:14.197Z,27.59
2023-04-20T09:58:24.005Z,28.40
2023-04-20T10:01:36.531Z,27.65
2023-04-20T10:04:59.304Z,28.47
2023-04-20T10:08:05.472Z,28.95
2023-04-20T10:11:12.018Z,28.34
2023-04-20T10:14:20.369Z,29.88
2023-04-20T10:17:36.975Z,29.83
2023-04-20T10:20:43.317Z,30.24
2023-04-20T10:23:53.560Z,31.62
2023-04-20T10:26:59.678Z,30.58
2023-04-20T10:30:13.628Z,30.65
2023-04-20T10:33:23.121Z,30.49
2023-04-20T10:36:34.281Z,31.21
2023-04-20T10:39:46.650Z,32.89
2023-04-20T10:42:53.107Z,33.84
2023-04-20T10:45:58.801Z,33.87
2023-04-20T10:49:07.898Z,35.00
2023-04-20T10:52:13.631Z,35.35
2023-04-20T10:55:26.286Z,36.45
2023-04-20T10:58:31.908Z,35.32
2023-04-20T11:01:39.090Z,35.48
2023-04-20T11:04:47.542Z,35.53
2023-04-20T11:07:56.435Z,36.05
2023-04-20T11:11:02.048Z,35.49
2023-04-20T11:14:10.715Z,36.44
2023-04-20T11:17:16.656Z,37.08
2023-04-20T11:20:25.921Z,36.43
2023-04-20T11:23:41.990Z,35.82
2023-04-20T11:26:50.103Z,34.47
2023-04-20T11:30:05.643Z,35.97
2023-04-20T11:33:14.142Z,34.55
2023-04-20T11:36:28.648Z,35.88
2023-04-20T11:39:35.291Z,35.73
2023-04-20T11:42:40.895Z,36.03
2023-04-20T11:45:47.370Z,36.56
2023-04-20T11:48:57.734Z,36.06
2023-04-20T11:52:07.106Z,36.25
2023-04-20T11:55:13.558Z,36.40
2023-04-20T11:58:19.987Z,36.91
2023-04-20T12:01:25.556Z,37.47
2023-04-20T12:04:33.492Z,37.93
2023-04-20T12:07:42.123Z,34.82
2023-04-20T12:10:48.974Z,35.09
2023-04-20T12:13:54.818Z,32.59
2023-04-20T12:17:01.424Z,31.73
2023-04-20T12:20:09.585Z,30.99
2023-04-20T12:23:19.647Z,31.39
2023-04-20T12:26:36.921Z,32.06
2023-04-20T12:29:44.767Z,31.93
2023-04-20T12:32:50.380Z,32.40
2023-04-20T12:35:57.115Z,33.31
2023-04-20T12:39:05.365Z,33.18
2023-04-20T12:42:11.883Z,34.44
2023-04-20T12:45:17.424Z,35.45
2023-04-20T12:48:23.938Z,36.20
2023-04-20T12:51:30.076Z,36.75
2023-04-20T12:54:39.197Z,37.88
2023-04-20T12:57:44.839Z,36.78
2023-04-20T13:00:51.255Z,37.29
2023-04-20T13:03:57.607Z,37.56
2023-04-20T13:07:04.275Z,37.45
2023-04-20T13:10:13.817Z,37.97
2023-04-20T13:13:20.556Z,38.25
2023-04-20T13:16:26.267Z,38.06
2023-04-20T13:19:34.357Z,37.69
2023-04-20T13:22:54.403Z,36.90
2023-04-20T13:26:06.188Z,35.51
2023-04-20T13:29:11.832Z,33.41
2023-04-20T13:32:18.431Z,29.72
2023-04-20T13:35:24.426Z,29.74
2023-04-20T13:38:30.857Z,28.64
2023-04-20T13:41:39.441Z,26.94
2023-04-20T13:44:45.993Z,25.79
2023-04-20T13:47:51.793Z,26.94
2023-04-20T13:50:58.323Z,26.35
2023-04-20T13:54:03.948Z,26.89
2023-04-20T13:57:13.110Z,26.36
2023-04-20T14:00:19.641Z,26.47
2023-04-20T14:03:28.058Z,27.26
2023-04-20T14:06:33.745Z,27.21
2023-04-20T14:09:40.281Z,27.38
2023-04-20T14:12:48.658Z,27.25
2023-04-20T14:15:57.892Z,28.43
2023-04-20T14:19:03.692Z,29.96
2023-04-20T14:22:10.138Z,30.33
2023-04-20T14:25:15.714Z,30.33
2023-04-20T14:28:24.863Z,30.59
2023-04-20T14:31:31.654Z,30.99
2023-04-20T14:34:38.253Z,31.08
2023-04-20T14:37:43.853Z,30.59
2023-04-20T14:40:51.413Z,29.02
2023-04-20T14:43:59.692Z,29.37
2023-04-20T14:47:06.121Z,27.21
2023-04-20T14:50:13.772Z,26.42
2023-04-20T14:53:20.325Z,27.26
2023-04-20T14:56:25.937Z,26.49
2023-04-20T14:59:34.852Z,26.90
2023-04-20T15:02:40.799Z,26.85
2023-04-20T15:05:47.780Z,26.75
2023-04-20T15:08:56.640Z,26.42
2023-04-20T15:12:03.015Z,26.40
2023-04-20T15:15:12.932Z,26.73
2023-04-20T15:18:19.934Z,26.11
2023-04-20T15:21:26.080Z,26.17
2023-04-20T15:24:33.116Z,26.20
2023-04-20T15:27:39.305Z,25.86
2023-04-20T15:30:48.357Z,25.93
2023-04-20T15:33:54.071Z,26.68
2023-04-20T15:37:00.615Z,27.20
2023-04-20T15:40:06.953Z,27.29
2023-04-20T15:43:13.362Z,28.10
2023-04-20T15:46:24.493Z,27.72
2023-04-20T15:49:31.112Z,28.09
2023-04-20T15:52:37.029Z,28.30
2023-04-20T15:55:44.218Z,27.91
2023-04-20T15:58:49.694Z,27.46
2023-04-20T16:01:58.991Z,26.87
2023-04-20T16:05:04.760Z,26.66
2023-04-20T16:08:11.417Z,26.77
2023-04-20T16:11:17.413Z,28.63
2023-04-20T16:14:24.042Z,27.52
2023-04-20T16:17:32.353Z,28.35
2023-04-20T16:20:40.034Z,29.10
2023-04-20T16:23:47.151Z,29.41
2023-04-20T16:26:53.660Z,30.28
2023-04-20T16:29:59.334Z,30.36
2023-04-20T16:33:08.367Z,30.79
2023-04-20T16:36:16.438Z,30.85
2023-04-20T16:39:23.325Z,31.54
2023-04-20T16:42:29.097Z,31.76
2023-04-20T16:45:36.720Z,32.01
2023-04-20T16:48:45.562Z,32.20
2023-04-20T16:51:52.070Z,33.19
2023-04-20T16:54:57.626Z,33.23
2023-04-20T16:58:04.560Z,33.63
2023-04-20T17:01:10.932Z,33.97
2023-04-20T17:04:20.478Z,34.41
2023-04-20T17:07:26.768Z,34.44
2023-04-20T17:10:33.398Z,34.77
2023-04-20T17:13:39.290Z,35.72
2023-04-20T17:16:45.832Z,35.59
2023-04-20T17:19:53.980Z,36.68
2023-04-20T17:23:00.476Z,36.58
2023-04-20T17:26:06.535Z,37.02
2023-04-20T17:29:13.820Z,36.91
2023-04-20T17:32:19.557Z,37.36
2023-04-20T17:35:28.887Z,37.69
2023-04-20T17:38:36.787Z,38.02
2023-04-20T17:41:43.236Z,38.51
2023-04-20T17:44:48.846Z,38.54
2023-04-20T17:47:56.246Z,38.97
2023-04-20T17:51:04.472Z,38.67
2023-04-20T17:54:11.583Z,39.24
2023-04-20T17:57:17.225Z,39.00
2023-04-20T18:00:23.848Z,39.28
2023-04-20T18:03:29.723Z,39.68
2023-04-20T18:06:38.816Z,39.86
2023-04-20T18:09:44.590Z,40.41
2023-04-20T18:12:51.130Z,40.97
2023-04-20T18:15:56.810Z,41.12
2023-04-20T18:19:03.389Z,41.18
2023-04-20T18:22:11.860Z,41.52
2023-04-20T18:25:19.145Z,41.76
2023-04-20T18:28:24.871Z,42.03
2023-04-20T18:31:31.593Z,42.23
2023-04-20T18:34:37.193Z,42.18
2023-04-20T18:37:46.218Z,42.05
2023-04-20T18:40:53.179Z,42.56
2023-04-20T18:44:01.433Z,42.07
2023-04-20T18:47:07.384Z,42.43
2023-04-20T18:50:15.552Z,42.93
2023-04-20T18:53:23.852Z,43.79
2023-04-20T18:56:30.308Z,43.87
2023-04-20T18:59:36.474Z,43.54
2023-04-20T19:02:43.156Z,43.45
2023-04-20T19:05:48.849Z,43.15
2023-04-20T19:08:58.341Z,43.17
2023-04-20T19:12:04.400Z,43.22
2023-04-20T19:15:12.700Z,43.14
2023-04-20T19:18:18.294Z,43.36
2023-04-20T19:21:24.703Z,43.78
2023-04-20T19:24:33.796Z,43.78
2023-04-20T19:27:40.324Z,43.48
2023-04-20T19:30:45.964Z,44.00
2023-04-20T19:33:52.503Z,44.48
2023-04-20T19:36:58.206Z,44.52
2023-04-20T19:40:08.693Z,45.09
2023-04-20T19:43:17.158Z,44.98
2023-04-20T19:46:23.650Z,44.89
2023-04-20T19:49:29.428Z,44.97
2023-04-20T19:52:36.333Z,45.23
2023-04-20T19:55:44.514Z,44.97
2023-04-20T19:58:50.929Z,45.29
2023-04-20T20:01:56.711Z,45.34
2023-04-20T20:05:03.446Z,45.62
2023-04-20T20:08:09.246Z,45.49
2023-04-20T20:11:19.100Z,45.86
2023-04-20T20:14:24.804Z,45.77
2023-04-20T20:17:34.721Z,46.19
2023-04-20T20:20:40.298Z,46.24
2023-04-20T20:23:46.720Z,46.20
2023-04-20T20:26:55.236Z,46.57
2023-04-20T20:30:01.686Z,46.39
2023-04-20T20:33:07.680Z,46.71
2023-04-20T20:36:14.786Z,46.87
2023-04-20T20:39:20.753Z,46.83
2023-04-20T20:42:31.598Z,46.65
2023-04-20T20:45:37.465Z,47.17
2023-04-20T20:48:44.007Z,47.28
2023-04-20T20:51:49.665Z,47.47
2023-04-20T20:54:58.444Z,47.77
2023-04-20T20:58:06.955Z,47.84
2023-04-20T21:01:13.532Z,48.13
2023-04-20T21:04:34.986Z,48.23
2023-04-20T21:07:42.229Z,48.27
2023-04-20T21:10:47.873Z,48.46
2023-04-20T21:14:02.212Z,48.49
2023-04-20T21:17:08.345Z,48.77
2023-04-20T21:20:15.750Z,48.65
2023-04-20T21:23:21.377Z,48.73
2023-04-20T21:26:28.663Z,48.95
2023-04-20T21:29:36.857Z,48.77
2023-04-20T21:32:43.379Z,48.74
2023-04-20T21:35:49.006Z,49.08
2023-04-20T21:38:55.665Z,48.85
2023-04-20T21:42:03.437Z,48.89
2023-04-20T21:45:15.066Z,49.12
2023-04-20T21:48:20.770Z,49.02
2023-04-20T21:51:27.971Z,49.06
2023-04-20T21:54:34.859Z,48.88
2023-04-20T21:57:41.425Z,49.15
2023-04-20T22:00:51.019Z,49.79
2023-04-20T22:03:57.808Z,49.83
2023-04-20T22:07:03.484Z,49.81
2023-04-20T22:10:12.544Z,49.98
2023-04-20T22:13:18.348Z,50.12
2023-04-20T22:16:28.996Z,50.07
2023-04-20T22:19:34.775Z,49.96
2023-04-20T22:22:42.798Z,49.82
2023-04-20T22:25:49.846Z,49.60
2023-04-20T22:28:56.459Z,49.51
2023-04-20T22:32:04.610Z,49.67
2023-04-20T22:35:11.778Z,49.82
2023-04-20T22:38:17.440Z,49.95
2023-04-20T22:41:23.882Z,49.72
2023-04-20T22:44:29.601Z,49.98
2023-04-20T22:47:38.716Z,50.96
2023-04-20T22:50:44.421Z,51.13
2023-04-20T22:53:50.963Z,51.65
2023-04-20T22:56:57.267Z,51.83
2023-04-20T23:00:10.408Z,51.53
2023-04-20T23:03:18.905Z,51.73
2023-04-20T23:06:25.745Z,51.13
2023-04-20T23:09:32.022Z,50.94
2023-04-20T23:12:38.615Z,51.14
2023-04-20T23:15:44.096Z,51.18
2023-04-20T23:18:53.264Z,51.19
2023-04-20T23:21:58.791Z,51.27
2023-04-20T23:25:15.422Z,50.99
2023-04-20T23:28:21.414Z,50.91
2023-04-20T23:31:28.009Z,50.89
2023-04-20T23:34:36.713Z,50.70
2023-04-20T23:37:43.197Z,50.75
2023-04-20T23:40:48.798Z,50.61
2023-04-20T23:43:55.320Z,50.54
2023-04-20T23:47:01.035Z,51.04
2023-04-20T23:50:12.470Z,51.22
2023-04-20T23:53:18.104Z,51.08
2023-04-20T23:56:24.625Z,51.51
2023-04-20T23:59:30.184Z,51.28
